Time;durP1;ratioP1;P1;durP2;ratioP2;P2;SDS_P1;SDS_P2;PMS_P1;PMS_P2;Temp;Humidity;BMP_temperature;BMP_pressure;BME280_temperature;BME280_humidity;BME280_pressure;Samples;Min_cycle;Max_cycle;Signal;HPM_P1;HPM_P2
2023/05/23 00:00:35;;;;;;;10.50;5.40;;;;;;;14.07;46.22;100761.36;105223;1283;74151;-87
2023/05/23 00:03:21;;;;;;;7.40;5.40;;;;;;;14.06;46.33;100759.47;105306;1284;60083;-86
2023/05/23 00:06:08;;;;;;;5.70;5.00;;;;;;;14.05;46.43;100757.27;105329;1283;60341;-87
2023/05/23 00:08:56;;;;;;;6.20;5.20;;;;;;;14.00;46.53;100754.13;105153;1282;72565;-86
2023/05/23 00:11:44;;;;;;;6.50;4.30;;;;;;;13.97;46.63;100753.70;106670;1284;67444;-87
2023/05/23 00:14:32;;;;;;;7.70;5.20;;;;;;;13.93;46.70;100755.02;106675;1284;74588;-88
2023/05/23 00:17:19;;;;;;;5.80;4.70;;;;;;;13.90;46.77;100752.48;105623;1284;60380;-87
2023/05/23 00:20:08;;;;;;;10.60;4.80;;;;;;;13.91;46.91;100750.04;105161;1288;60430;-88
2023/05/23 00:22:57;;;;;;;9.30;4.40;;;;;;;13.86;46.99;100750.15;105183;1283;73510;-86
2023/05/23 00:25:47;;;;;;;6.80;5.00;;;;;;;13.84;47.08;100750.39;105210;1284;67214;-86
2023/05/23 00:28:33;;;;;;;6.90;4.60;;;;;;;13.80;47.11;100748.94;105197;1286;73136;-87
2023/05/23 00:31:19;;;;;;;6.60;4.90;;;;;;;13.76;47.02;100748.73;105320;1286;61183;-87
2023/05/23 00:34:05;;;;;;;7.20;4.40;;;;;;;13.66;47.08;100745.87;105771;1283;60361;-86
2023/05/23 00:36:53;;;;;;;6.60;4.80;;;;;;;13.60;47.18;100744.80;105616;1283;73551;-87
2023/05/23 00:39:39;;;;;;;7.80;4.80;;;;;;;13.56;47.30;100743.52;105740;1283;67406;-86
2023/05/23 00:42:25;;;;;;;4.60;4.00;;;;;;;13.52;47.40;100743.48;105700;1283;72426;-86
2023/05/23 00:45:11;;;;;;;8.40;4.60;;;;;;;13.41;47.47;100737.89;105815;1285;60337;-86
2023/05/23 00:47:58;;;;;;;5.80;4.50;;;;;;;13.37;47.63;100737.30;105665;1285;60418;-87
2023/05/23 00:50:45;;;;;;;8.00;4.50;;;;;;;13.35;47.60;100737.68;105651;1283;72451;-87
2023/05/23 00:53:32;;;;;;;;;;;;;;;13.31;47.68;100736.41;105610;1283;70098;-86
2023/05/23 00:56:19;;;;;;;8.20;4.30;;;;;;;13.25;47.86;100734.30;105668;1283;71561;-87
2023/05/23 00:59:06;;;;;;;10.10;4.90;;;;;;;13.21;47.98;100738.02;105647;1283;60437;-88
2023/05/23 01:01:55;;;;;;;8.20;4.10;;;;;;;13.20;47.97;100739.26;105650;1285;60508;-88
2023/05/23 01:04:43;;;;;;;5.70;4.40;;;;;;;13.18;48.03;100737.77;105556;1283;72520;-87
2023/05/23 01:07:30;;;;;;;5.30;4.40;;;;;;;13.13;48.09;100735.63;105724;1283;69174;-88
2023/05/23 01:10:22;;;;;;;6.60;4.80;;;;;;;13.11;48.21;100735.83;105717;1283;74564;-88
2023/05/23 01:13:30;;;;;;;8.60;4.60;;;;;;;13.12;48.34;100735.46;105692;1283;60381;-88
2023/05/23 01:16:23;;;;;;;5.20;4.60;;;;;;;13.08;48.48;100731.39;105669;1282;60498;-86
2023/05/23 01:19:47;;;;;;;5.50;5.00;;;;;;;13.03;48.55;100728.41;105463;1286;72384;-86
2023/05/23 01:23:06;;;;;;;6.10;5.00;;;;;;;12.94;48.52;100733.84;105543;1283;67410;-86
2023/05/23 01:26:02;;;;;;;4.80;4.30;;;;;;;12.90;48.66;100729.44;105398;1288;73911;-86
2023/05/23 01:28:53;;;;;;;8.90;4.70;;;;;;;12.87;48.76;100729.16;105738;1283;60407;-86
2023/05/23 01:31:44;;;;;;;4.40;4.00;;;;;;;12.82;48.80;100728.92;105594;1283;59195;-86
2023/05/23 01:34:34;;;;;;;8.40;4.80;;;;;;;12.80;48.92;100732.11;105467;1283;72297;-86
2023/05/23 01:37:20;;;;;;;4.60;4.20;;;;;;;12.73;48.96;100732.08;105399;1286;71545;-86
2023/05/23 01:40:08;;;;;;;10.90;5.00;;;;;;;12.70;48.99;100722.98;105571;1285;71676;-86
2023/05/23 01:42:58;;;;;;;10.40;4.20;;;;;;;12.63;49.09;100724.01;105682;1283;60995;-86
2023/05/23 01:45:45;;;;;;;7.80;4.00;;;;;;;12.58;49.23;100718.94;105487;1283;59171;-86
2023/05/23 01:48:32;;;;;;;9.80;4.00;;;;;;;12.54;49.24;100717.27;105428;1283;75289;-86
2023/05/23 01:51:20;;;;;;;8.80;4.90;;;;;;;12.46;49.34;100714.55;105647;1283;67278;-86
2023/05/23 01:54:06;;;;;;;9.10;4.40;;;;;;;12.43;49.42;100717.73;105826;1283;71171;-86
2023/05/23 01:56:53;;;;;;;6.30;4.00;;;;;;;12.42;49.45;100714.14;105604;1283;60374;-86
2023/05/23 01:59:39;;;;;;;13.20;4.50;;;;;;;12.35;49.53;100709.79;105740;1285;60355;-86
2023/05/23 02:02:26;;;;;;;9.50;4.00;;;;;;;12.28;49.60;100709.09;105881;1283;75271;-86
2023/05/23 02:05:12;;;;;;;;;;;;;;;12.27;49.71;100707.03;105666;1286;68110;-86
2023/05/23 02:07:58;;;;;;;;;;;;;;;12.22;49.78;100704.89;105730;1286;71274;-86
2023/05/23 02:10:44;;;;;;;4.10;3.70;;;;;;;12.16;49.83;100702.24;105834;1283;60489;-86
2023/05/23 02:13:30;;;;;;;6.20;4.90;;;;;;;12.19;49.86;100698.73;105751;1283;61782;-87
2023/05/23 02:16:16;;;;;;;5.00;4.50;;;;;;;12.24;49.98;100694.48;105493;1283;73292;-86
2023/05/23 02:19:03;;;;;;;9.00;4.80;;;;;;;12.23;49.99;100686.89;105682;1283;68940;-86
2023/05/23 02:21:49;;;;;;;;;;;;;;;12.24;50.06;100680.47;105645;1285;71286;-87
2023/05/23 02:24:35;;;;;;;4.90;4.40;;;;;;;12.23;50.18;100677.38;105790;1286;60540;-86
2023/05/23 02:27:21;;;;;;;7.20;4.70;;;;;;;12.23;50.15;100678.06;105366;1286;59168;-86
2023/05/23 02:30:08;;;;;;;12.20;5.30;;;;;;;12.22;50.32;100679.11;105548;1285;72435;-87
2023/05/23 02:32:54;;;;;;;;;;;;;;;12.23;50.34;100678.24;105708;1283;68013;-86
2023/05/23 02:35:41;;;;;;;5.70;4.60;;;;;;;12.20;50.42;100674.34;105775;1286;73983;-86
2023/05/23 02:38:28;;;;;;;7.20;5.10;;;;;;;12.21;50.51;100671.20;105526;1285;61016;-86
2023/05/23 02:41:14;;;;;;;7.00;4.40;;;;;;;12.20;50.51;100670.36;105673;1286;60329;-86
2023/05/23 02:44:00;;;;;;;13.40;4.70;;;;;;;12.22;50.62;100670.67;105781;1283;73814;-86
2023/05/23 02:46:46;;;;;;;8.60;5.30;;;;;;;12.23;50.61;100673.92;105766;1283;68517;-86
2023/05/23 02:49:33;;;;;;;12.00;5.90;;;;;;;12.18;50.72;100674.20;105500;1283;72010;-86
2023/05/23 02:52:19;;;;;;;6.90;4.60;;;;;;;12.15;50.78;100678.25;105817;1283;60948;-86
2023/05/23 02:55:06;;;;;;;5.40;4.60;;;;;;;12.15;50.86;100671.67;105885;1288;60441;-86
2023/05/23 02:57:52;;;;;;;;;;;;;;;12.18;50.91;100670.75;105868;1285;72614;-86
2023/05/23 03:00:38;;;;;;;8.10;5.20;;;;;;;12.15;51.07;100673.41;105823;1284;67549;-86
2023/05/23 03:03:27;;;;;;;5.70;5.10;;;;;;;12.18;51.07;100673.16;105856;1283;73510;-86
2023/05/23 03:06:15;;;;;;;10.00;4.90;;;;;;;12.19;51.14;100670.04;105657;1283;60386;-86
2023/05/23 03:09:02;;;;;;;9.10;6.00;;;;;;;12.16;51.21;100673.73;105820;1283;60418;-88
2023/05/23 03:11:48;;;;;;;6.10;5.50;;;;;;;12.19;51.35;100668.98;105735;1283;73844;-88
2023/05/23 03:14:35;;;;;;;9.00;5.30;;;;;;;12.25;51.40;100669.38;105664;1283;68711;-86
2023/05/23 03:17:24;;;;;;;10.40;5.20;;;;;;;12.30;51.48;100669.64;105650;1283;71222;-86
2023/05/23 03:20:10;;;;;;;9.20;6.10;;;;;;;12.31;51.51;100670.81;105686;1286;60510;-86
2023/05/23 03:22:56;;;;;;;5.90;5.30;;;;;;;12.37;51.57;100672.41;105629;1284;61065;-86
2023/05/23 03:25:42;;;;;;;10.50;5.40;;;;;;;12.41;51.66;100667.98;105720;1285;73575;-86
2023/05/23 03:28:32;;;;;;;8.70;5.00;;;;;;;12.44;51.62;100668.09;105595;1286;69050;-86
2023/05/23 03:31:18;;;;;;;7.50;5.40;;;;;;;12.46;51.80;100668.21;105633;1285;73987;-86
2023/05/23 03:34:04;;;;;;;;;;;;;;;12.49;51.85;100665.52;105535;1286;60467;-87
2023/05/23 03:36:51;;;;;;;10.10;4.60;;;;;;;12.51;51.96;100667.38;105899;1288;58545;-87
2023/05/23 03:39:38;;;;;;;9.30;5.50;;;;;;;12.58;51.97;100667.57;105751;1283;71651;-86
2023/05/23 03:42:24;;;;;;;8.10;5.60;;;;;;;12.64;52.04;100666.91;105856;1286;71336;-87
2023/05/23 03:45:11;;;;;;;8.80;5.30;;;;;;;12.66;52.10;100664.45;105897;1285;72602;-87
2023/05/23 03:48:00;;;;;;;6.40;5.50;;;;;;;12.67;52.06;100656.64;105845;1286;60427;-86
2023/05/23 03:50:47;;;;;;;9.00;5.90;;;;;;;12.69;52.09;100658.31;105473;1283;60367;-87
2023/05/23 03:53:33;;;;;;;7.30;5.70;;;;;;;12.71;52.12;100659.30;105675;1283;72404;-86
2023/05/23 03:56:20;;;;;;;7.70;6.30;;;;;;;12.75;52.29;100660.42;105748;1283;67309;-87
2023/05/23 03:59:06;;;;;;;8.60;6.30;;;;;;;12.80;52.42;100660.14;105567;1283;71319;-87
2023/05/23 04:01:52;;;;;;;17.50;6.80;;;;;;;12.81;52.49;100661.83;105728;1283;60759;-86
2023/05/23 04:05:22;;;;;;;9.70;5.80;;;;;;;12.89;52.52;100658.52;103543;1283;5003004;-89
2023/05/23 04:08:53;;;;;;;8.80;5.90;;;;;;;13.09;52.58;100656.43;105473;1289;59999;-90
2023/05/23 04:11:43;;;;;;;6.80;5.70;;;;;;;13.22;52.59;100654.05;105389;1289;73960;-88
2023/05/23 04:14:32;;;;;;;8.40;6.00;;;;;;;13.30;52.68;100650.73;105287;1291;69316;-87
2023/05/23 04:17:42;;;;;;;8.10;6.30;;;;;;;13.36;52.88;100646.41;105284;1289;71309;-88
2023/05/23 04:20:31;;;;;;;7.00;6.10;;;;;;;13.45;52.84;100648.59;105457;1288;58661;-88
2023/05/23 04:23:45;;;;;;;12.40;7.70;;;;;;;13.56;52.86;100648.08;105439;1289;59314;-89
2023/05/23 04:27:24;;;;;;;10.90;6.50;;;;;;;13.71;52.88;100646.79;104972;1292;72357;-89
2023/05/23 04:30:41;;;;;;;13.30;7.40;;;;;;;13.87;52.84;100644.25;104869;1295;68454;-89
2023/05/23 04:34:29;;;;;;;7.30;6.00;;;;;;;13.99;52.91;100644.62;104875;1298;71453;-90
2023/05/23 04:38:07;;;;;;;9.00;6.00;;;;;;;14.17;53.07;100641.10;104881;1294;59390;-90
2023/05/23 04:41:12;;;;;;;91.70;11.00;;;;;;;14.30;53.22;100638.42;105016;1295;60417;-90
2023/05/23 04:44:38;;;;;;;22.40;7.40;;;;;;;14.46;53.23;100637.45;104789;1294;74019;-89
2023/05/23 04:48:28;;;;;;;15.80;6.50;;;;;;;14.65;53.14;100631.42;104740;1297;67447;-89
2023/05/23 04:52:17;;;;;;;13.70;6.00;;;;;;;14.91;53.24;100630.06;104853;1294;71399;-90
2023/05/23 04:55:28;;;;;;;12.50;6.20;;;;;;;15.19;53.28;100626.83;104377;1302;60806;-89
2023/05/23 04:58:40;;;;;;;13.60;6.20;;;;;;;15.41;53.12;100628.63;104810;1297;60306;-89
2023/05/23 05:01:49;;;;;;;8.70;6.50;;;;;;;15.62;53.07;100629.30;104714;1297;72527;-89
2023/05/23 05:05:18;;;;;;;8.70;7.40;;;;;;;15.87;53.04;100623.14;104562;1297;68430;-89
2023/05/23 05:08:46;;;;;;;13.50;7.90;;;;;;;16.22;52.99;100622.11;105152;1291;70406;-90
2023/05/23 05:12:34;;;;;;;11.60;6.80;;;;;;;16.76;53.01;100609.82;105252;1291;61139;-90
2023/05/23 05:16:25;;;;;;;8.10;5.70;;;;;;;17.20;52.87;100606.92;105242;1292;59100;-90
2023/05/23 05:19:21;;;;;;;7.20;5.60;;;;;;;17.68;52.95;100608.05;105063;1297;72577;-90
2023/05/23 05:22:29;;;;;;;8.40;4.60;;;;;;;18.34;52.80;100610.89;105132;1291;68270;-90
2023/05/23 05:25:50;;;;;;;7.10;4.70;;;;;;;19.06;52.68;100607.63;105398;1285;71277;-90
2023/05/23 05:29:03;;;;;;;6.60;4.20;;;;;;;19.66;52.22;100611.46;106053;1283;59202;-90
2023/05/23 05:32:24;;;;;;;9.00;4.50;;;;;;;20.25;51.98;100602.09;106023;1283;60370;-91
2023/05/23 05:36:08;;;;;;;9.50;4.20;;;;;;;21.00;51.63;100595.60;105879;1283;72519;-90
2023/05/23 05:39:38;;;;;;;8.40;4.10;;;;;;;21.58;51.44;100595.21;105471;1286;68583;-91
2023/05/23 05:43:27;;;;;;;4.60;3.60;;;;;;;22.24;51.03;100595.94;105692;1283;71182;-91
2023/05/23 05:47:15;;;;;;;21.10;4.80;;;;;;;22.66;50.64;100590.33;105695;1283;60300;-90
2023/05/23 05:51:03;;;;;;;13.40;4.20;;;;;;;23.10;50.44;100596.16;105853;1283;60479;-90
2023/05/23 05:54:52;;;;;;;5.60;3.60;;;;;;;23.56;50.11;100597.17;105641;1286;73008;-90
2023/05/23 05:58:41;;;;;;;7.50;3.70;;;;;;;24.03;49.75;100590.05;105507;1286;67215;-90
2023/05/23 06:02:14;;;;;;;9.50;4.00;;;;;;;24.27;49.41;100587.83;105728;1286;71487;-90
2023/05/23 06:05:46;;;;;;;12.00;3.60;;;;;;;24.26;49.30;100585.26;105610;1285;59151;-90
2023/05/23 06:09:24;;;;;;;4.20;3.80;;;;;;;24.25;49.05;100584.63;105482;1287;60479;-89
2023/05/23 06:12:44;;;;;;;6.10;3.20;;;;;;;24.22;48.79;100584.85;105425;1288;72442;-89
2023/05/23 06:16:17;;;;;;;5.80;3.50;;;;;;;24.29;48.44;100585.16;105185;1291;68421;-87
2023/05/23 06:19:08;;;;;;;5.90;3.60;;;;;;;24.33;47.78;100585.13;106536;1286;71869;-88
2023/05/23 06:22:17;;;;;;;4.80;3.20;;;;;;;24.07;47.59;100582.23;106681;1286;58286;-88
2023/05/23 06:25:18;;;;;;;4.10;3.10;;;;;;;23.61;47.35;100578.33;106794;1283;59686;-89
2023/05/23 06:28:16;;;;;;;15.10;3.40;;;;;;;23.07;47.49;100572.63;105929;1283;74132;-88
2023/05/23 06:31:04;;;;;;;8.80;4.30;;;;;;;22.80;47.44;100571.52;106020;1285;68037;-88
2023/05/23 06:33:56;;;;;;;4.00;3.00;;;;;;;22.49;47.05;100562.52;105874;1283;71240;-87
2023/05/23 06:36:50;;;;;;;6.20;2.90;;;;;;;22.17;47.27;100560.59;105809;1283;60643;-89
2023/05/23 06:40:17;;;;;;;4.30;3.50;;;;;;;22.00;47.13;100555.89;105752;1288;59503;-91
2023/05/23 06:43:41;;;;;;;4.40;3.30;;;;;;;21.95;47.21;100554.23;105762;1286;73670;-90
2023/05/23 06:47:15;;;;;;;6.30;3.20;;;;;;;22.15;47.11;100560.50;100846;1286;69894;-90
2023/05/23 06:50:28;;;;;;;5.30;3.40;;;;;;;22.42;47.02;100560.99;105868;1285;58293;-93
2023/05/23 06:54:17;;;;;;;5.60;3.60;;;;;;;22.76;46.93;100564.73;105829;1288;60513;-90
2023/05/23 06:57:31;;;;;;;6.00;3.20;;;;;;;23.40;46.57;100570.67;105069;1292;74645;-90
2023/05/23 07:00:25;;;;;;;11.10;3.40;;;;;;;23.97;46.47;100571.13;105147;1292;67380;-89
2023/05/23 07:03:11;;;;;;;5.90;3.30;;;;;;;24.34;46.19;100567.38;105110;1292;75342;-87
2023/05/23 07:06:38;;;;;;;3.50;3.00;;;;;;;24.52;46.05;100569.59;105035;1292;60676;-90
2023/05/23 07:09:33;;;;;;;4.20;3.40;;;;;;;24.59;45.74;100574.52;105151;1292;59191;-88
2023/05/23 07:12:19;;;;;;;;;;;;;;;24.38;45.61;100572.92;104922;1297;72406;-89
2023/05/23 07:15:07;;;;;;;5.60;3.30;;;;;;;24.38;45.65;100571.67;105122;1291;67416;-88
2023/05/23 07:17:55;;;;;;;3.70;3.10;;;;;;;24.51;45.37;100571.41;105156;1289;71818;-89
2023/05/23 07:20:41;;;;;;;3.40;2.90;;;;;;;24.57;45.41;100568.81;105811;1291;61311;-88
2023/05/23 07:23:31;;;;;;;;;;;;;;;24.54;45.23;100569.93;105019;1291;60578;-87
2023/05/23 07:26:17;;;;;;;5.10;3.20;;;;;;;24.33;44.99;100569.76;105096;1292;75187;-87
2023/05/23 07:29:03;;;;;;;4.90;3.60;;;;;;;24.20;45.14;100569.30;105050;1292;66190;-87
2023/05/23 07:31:50;;;;;;;4.50;3.40;;;;;;;24.12;45.00;100566.52;105103;1294;71216;-88
2023/05/23 07:34:36;;;;;;;14.80;3.20;;;;;;;24.04;44.97;100566.73;105578;1283;60354;-88
2023/05/23 07:37:23;;;;;;;8.20;4.40;;;;;;;23.97;44.79;100568.83;105511;1283;61000;-87
2023/05/23 07:40:09;;;;;;;;;;;;;;;23.87;44.81;100568.88;105730;1283;72446;-88
2023/05/23 07:42:58;;;;;;;8.30;4.20;;;;;;;23.84;44.81;100563.33;105865;1283;67831;-91
2023/05/23 07:45:45;;;;;;;5.80;4.60;;;;;;;23.86;44.74;100567.05;105678;1286;72524;-87
2023/05/23 07:48:32;;;;;;;6.50;4.70;;;;;;;23.72;44.54;100570.82;105832;1288;60581;-88
2023/05/23 07:51:20;;;;;;;5.40;4.30;;;;;;;23.80;44.54;100570.14;105734;1288;60382;-87
2023/05/23 07:54:06;;;;;;;5.70;4.40;;;;;;;24.22;44.31;100567.42;105791;1283;72349;-88
2023/05/23 07:56:53;;;;;;;5.60;4.00;;;;;;;24.74;44.19;100566.99;105742;1283;69075;-87
2023/05/23 07:59:39;;;;;;;;;;;;;;;25.24;43.89;100567.17;105716;1288;73336;-88
2023/05/23 08:02:31;;;;;;;6.60;3.90;;;;;;;26.03;43.91;100568.96;105772;1286;61464;-89
2023/05/23 08:05:21;;;;;;;7.70;3.90;;;;;;;27.33;43.52;100569.43;106442;1283;59971;-89
2023/05/23 08:08:09;;;;;;;6.30;4.00;;;;;;;29.14;43.23;100565.39;105807;1283;72506;-89
2023/05/23 08:10:58;;;;;;;7.70;4.20;;;;;;;31.50;42.87;100567.08;105684;1286;66811;-89
2023/05/23 08:13:45;;;;;;;5.60;4.20;;;;;;;33.49;42.34;100563.86;105533;1285;72063;-89
2023/05/23 08:16:32;;;;;;;9.30;4.80;;;;;;;34.91;41.59;100561.36;105449;1285;60425;-88
2023/05/23 08:19:19;;;;;;;4.90;4.50;;;;;;;36.19;41.01;100559.94;105440;1284;60466;-89
2023/05/23 08:22:05;;;;;;;8.00;4.00;;;;;;;37.41;41.05;100554.45;105451;1285;72445;-89
2023/05/23 08:24:51;;;;;;;4.20;3.60;;;;;;;38.89;40.22;100552.89;105485;1290;67470;-89
2023/05/23 08:27:37;;;;;;;5.60;4.10;;;;;;;39.83;39.19;100556.20;105522;1285;71848;-89
2023/05/23 08:30:32;;;;;;;5.20;4.00;;;;;;;40.35;38.36;100557.46;105360;1285;58408;-89
2023/05/23 08:33:18;;;;;;;9.50;4.30;;;;;;;40.07;37.64;100552.54;105538;1291;60312;-89
2023/05/23 08:36:05;;;;;;;4.10;3.70;;;;;;;39.97;36.83;100551.42;105414;1286;76849;-90
2023/05/23 08:38:51;;;;;;;8.30;3.80;;;;;;;39.55;36.09;100541.71;105239;1287;68191;-89
2023/05/23 08:41:38;;;;;;;4.90;3.70;;;;;;;38.87;35.13;100541.80;105365;1287;74004;-89
2023/05/23 08:45:05;;;;;;;7.60;3.50;;;;;;;37.50;34.55;100535.45;105389;1288;60480;-88
2023/05/23 08:47:59;;;;;;;5.90;3.00;;;;;;;35.90;34.16;100534.86;105609;1285;60493;-89
2023/05/23 08:50:48;;;;;;;7.30;3.20;;;;;;;35.02;33.61;100537.14;105875;1288;72975;-88
2023/05/23 08:53:38;;;;;;;6.90;3.90;;;;;;;33.95;33.11;100534.33;105261;1286;67305;-88
2023/05/23 08:56:34;;;;;;;6.70;3.40;;;;;;;32.96;32.83;100528.23;105402;1288;72645;-89
2023/05/23 08:59:25;;;;;;;8.10;3.20;;;;;;;32.25;32.50;100527.01;106056;1287;58881;-89
2023/05/23 09:02:12;;;;;;;3.70;3.40;;;;;;;31.59;32.24;100526.31;105328;1286;59317;-87
2023/05/23 09:04:59;;;;;;;6.80;3.10;;;;;;;30.96;31.87;100526.55;105441;1287;72680;-87
2023/05/23 09:07:49;;;;;;;;;;;;;;;30.29;31.48;100523.63;105635;1286;67250;-88
2023/05/23 09:10:36;;;;;;;7.20;3.20;;;;;;;29.80;31.81;100522.10;105373;1287;73900;-88
2023/05/23 09:13:22;;;;;;;4.40;3.30;;;;;;;29.43;31.36;100519.67;105466;1288;60451;-88
2023/05/23 09:16:10;;;;;;;9.70;3.30;;;;;;;28.85;31.11;100517.95;105490;1290;59131;-88
2023/05/23 09:18:56;;;;;;;3.20;2.90;;;;;;;28.23;31.07;100514.45;105317;1288;74435;-88
2023/05/23 09:21:44;;;;;;;5.10;3.00;;;;;;;27.87;31.19;100513.02;105368;1287;68571;-88
2023/05/23 09:24:35;;;;;;;4.40;3.50;;;;;;;27.45;30.85;100518.65;105292;1293;71336;-88
2023/05/23 09:27:22;;;;;;;4.00;3.30;;;;;;;27.10;31.10;100512.80;105434;1288;60294;-88
2023/05/23 09:30:10;;;;;;;12.50;3.70;;;;;;;26.93;31.18;100510.50;105290;1293;60682;-87
2023/05/23 09:33:03;;;;;;;4.20;3.10;;;;;;;26.68;31.09;100507.39;106236;1288;73814;-88
2023/05/23 09:35:53;;;;;;;10.20;3.80;;;;;;;26.26;31.10;100503.63;105436;1286;67009;-88
2023/05/23 09:38:41;;;;;;;4.10;3.30;;;;;;;25.98;31.30;100507.05;105465;1286;71117;-88
2023/05/23 09:42:20;;;;;;;8.20;3.30;;;;;;;25.83;31.41;100508.71;105193;1288;58555;-87
2023/05/23 09:45:29;;;;;;;4.90;3.10;;;;;;;25.60;31.47;100507.64;105553;1286;60366;-88
2023/05/23 09:48:32;;;;;;;2.80;2.60;;;;;;;25.41;31.65;100506.73;105220;1286;210540;-87
2023/05/23 09:51:21;;;;;;;4.20;2.90;;;;;;;25.15;31.53;100506.16;105380;1288;67156;-87
2023/05/23 09:54:10;;;;;;;3.10;2.70;;;;;;;24.85;31.54;100502.84;105614;1288;71487;-87
2023/05/23 09:57:04;;;;;;;3.20;2.70;;;;;;;24.58;31.52;100505.60;105281;1285;58514;-88
2023/05/23 09:59:53;;;;;;;4.60;3.20;;;;;;;24.31;31.75;100506.10;105572;1288;59695;-85
2023/05/23 10:03:14;;;;;;;4.00;2.70;;;;;;;24.09;31.73;100502.79;105570;1286;72361;-85
2023/05/23 10:06:07;;;;;;;10.10;2.90;;;;;;;23.90;31.85;100500.55;105044;1292;67287;-85
2023/05/23 10:09:01;;;;;;;4.30;2.60;;;;;;;23.76;32.06;100500.34;105019;1292;70791;-85
2023/05/23 10:12:34;;;;;;;4.00;2.60;;;;;;;23.66;32.22;100495.94;105021;1292;58797;-85
2023/05/23 10:15:26;;;;;;;6.30;3.00;;;;;;;23.56;32.23;100490.55;104266;1304;60369;-85
2023/05/23 10:18:20;;;;;;;3.20;2.80;;;;;;;23.42;32.25;100489.91;104090;1307;72396;-85
2023/05/23 10:21:11;;;;;;;4.10;2.90;;;;;;;23.30;32.24;100489.25;104194;1304;67767;-85
2023/05/23 10:23:59;;;;;;;9.70;2.60;;;;;;;23.25;32.42;100490.52;104195;1303;73036;-85
2023/05/23 10:26:45;;;;;;;4.90;3.10;;;;;;;23.28;32.68;100487.77;104225;1304;59374;-85
2023/05/23 10:29:35;;;;;;;3.00;2.70;;;;;;;23.34;32.86;100487.00;104225;1303;60597;-85
2023/05/23 10:32:23;;;;;;;3.00;2.40;;;;;;;23.37;32.84;100483.08;104230;1303;73342;-85
2023/05/23 10:35:22;;;;;;;3.30;2.50;;;;;;;23.34;32.89;100480.50;104539;1303;69026;-85
2023/05/23 10:38:19;;;;;;;4.00;2.60;;;;;;;23.33;33.01;100481.64;104218;1303;71399;-85
2023/05/23 10:41:28;;;;;;;7.30;2.60;;;;;;;23.35;33.28;100482.16;104103;1306;60443;-85
2023/05/23 10:44:29;;;;;;;2.60;2.40;;;;;;;23.35;33.35;100474.59;104308;1297;60664;-85
2023/05/23 10:47:27;;;;;;;5.40;2.80;;;;;;;23.39;33.38;100477.10;105533;1297;72410;-86
2023/05/23 10:50:34;;;;;;;3.90;2.50;;;;;;;23.44;33.46;100476.58;104746;1298;68537;-85
2023/05/23 10:53:22;;;;;;;3.00;2.10;;;;;;;23.49;33.55;100473.60;105462;1285;71172;-86
2023/05/23 10:56:10;;;;;;;4.40;2.60;;;;;;;23.54;33.67;100472.56;105433;1285;59040;-85
2023/05/23 10:58:57;;;;;;;3.70;2.40;;;;;;;23.55;33.72;100473.89;105539;1288;60401;-85
2023/05/23 11:01:43;;;;;;;3.90;3.00;;;;;;;23.56;33.74;100472.41;105392;1286;72428;-86
2023/05/23 11:04:30;;;;;;;5.80;2.80;;;;;;;23.62;33.90;100475.63;105398;1286;67301;-85
2023/05/23 11:07:31;;;;;;;4.90;2.80;;;;;;;23.69;34.09;100470.40;105309;1287;71265;-86
2023/05/23 11:10:18;;;;;;;4.00;3.20;;;;;;;23.78;34.15;100474.16;105426;1286;59312;-85
2023/05/23 11:13:07;;;;;;;;;;;;;;;23.89;34.12;100472.29;105619;1288;61077;-85
2023/05/23 11:16:13;;;;;;;5.00;3.10;;;;;;;23.98;33.90;100475.12;105632;1287;75159;-85
2023/05/23 11:19:17;;;;;;;2.80;2.50;;;;;;;24.01;33.90;100473.83;105628;1286;67646;-86
2023/05/23 11:22:07;;;;;;;7.00;3.20;;;;;;;24.08;33.97;100474.20;105605;1286;72969;-86
2023/05/23 11:24:55;;;;;;;7.40;3.00;;;;;;;24.17;34.07;100472.84;105283;1292;59131;-85
2023/05/23 11:27:45;;;;;;;7.60;3.90;;;;;;;24.26;34.16;100473.52;105368;1287;60444;-85
2023/05/23 11:30:32;;;;;;;6.60;2.70;;;;;;;24.37;34.16;100468.11;105492;1291;73114;-86
2023/05/23 11:33:19;;;;;;;4.20;2.80;;;;;;;24.45;34.08;100468.45;105609;1290;67227;-85
2023/05/23 11:36:06;;;;;;;8.80;2.70;;;;;;;24.56;34.18;100472.70;105491;1286;71101;-86
2023/05/23 11:38:52;;;;;;;3.10;2.80;;;;;;;24.65;34.23;100470.35;105515;1286;59153;-86
2023/05/23 11:41:41;;;;;;;3.90;2.90;;;;;;;24.72;34.31;100471.79;105406;1289;60725;-86
2023/05/23 11:44:27;;;;;;;5.60;3.10;;;;;;;24.81;34.12;100469.29;105488;1285;73844;-85
2023/05/23 11:47:14;;;;;;;;;;;;;;;24.77;34.13;100469.63;105435;1286;68641;-85
2023/05/23 11:50:00;;;;;;;;;;;;;;;24.64;33.98;100471.53;105636;1287;71238;-86
2023/05/23 11:52:50;;;;;;;;;;;;;;;24.51;34.00;100467.77;105590;1291;60459;-85
2023/05/23 11:55:39;;;;;;;4.10;2.60;;;;;;;24.43;34.19;100466.60;105613;1286;60306;-86
2023/05/23 11:58:28;;;;;;;6.20;2.50;;;;;;;24.40;34.10;100469.49;105568;1286;72509;-85
2023/05/23 12:01:15;;;;;;;4.30;2.70;;;;;;;24.33;34.11;100469.66;105600;1290;66223;-85
2023/05/23 12:04:10;;;;;;;5.10;2.60;;;;;;;24.31;34.12;100469.10;105567;1286;71957;-85
2023/05/23 12:06:57;;;;;;;3.20;2.70;;;;;;;24.31;34.24;100468.21;105457;1292;60861;-85
2023/05/23 12:09:43;;;;;;;3.00;2.60;;;;;;;24.30;34.22;100466.38;105512;1288;60307;-85
2023/05/23 12:12:31;;;;;;;2.80;2.40;;;;;;;24.32;34.31;100463.92;105431;1292;75236;-85
2023/05/23 12:15:17;;;;;;;3.80;2.90;;;;;;;24.33;34.22;100462.23;105601;1287;67310;-85
2023/05/23 12:18:04;;;;;;;3.30;2.90;;;;;;;24.37;34.30;100460.23;105648;1286;70287;-85
2023/05/23 12:20:51;;;;;;;3.20;2.80;;;;;;;24.34;34.08;100456.40;105702;1286;58763;-85
2023/05/23 12:23:38;;;;;;;3.50;2.90;;;;;;;24.30;34.18;100448.39;105611;1286;60363;-86
2023/05/23 12:26:24;;;;;;;7.10;2.60;;;;;;;24.29;34.30;100446.58;105709;1285;75167;-85
2023/05/23 12:29:10;;;;;;;3.30;3.00;;;;;;;24.24;34.49;100448.85;105610;1292;67404;-85
2023/05/23 12:31:58;;;;;;;5.20;3.20;;;;;;;24.19;34.66;100444.34;105543;1286;72483;-85
2023/05/23 12:34:44;;;;;;;4.80;2.40;;;;;;;24.12;34.92;100450.65;106102;1287;58397;-85
2023/05/23 12:37:30;;;;;;;7.30;3.70;;;;;;;24.03;34.80;100458.18;105625;1289;60437;-85
2023/05/23 12:40:17;;;;;;;8.30;4.00;;;;;;;23.85;34.95;100466.08;105492;1286;73284;-85
2023/05/23 12:43:09;;;;;;;8.00;4.00;;;;;;;23.63;35.32;100470.33;105502;1292;68670;-85
2023/05/23 12:45:55;;;;;;;8.40;4.10;;;;;;;23.50;35.49;100472.83;106341;1286;71451;-86
2023/05/23 12:48:41;;;;;;;5.10;4.00;;;;;;;23.34;35.69;100478.95;105932;1291;59159;-85
2023/05/23 12:51:27;;;;;;;10.10;3.90;;;;;;;23.25;35.97;100478.54;105426;1292;60448;-86
2023/05/23 12:54:14;;;;;;;6.60;4.00;;;;;;;23.16;36.18;100486.91;105422;1286;74831;-85
2023/05/23 12:57:00;;;;;;;7.60;4.40;;;;;;;23.07;36.57;100493.30;105512;1292;67455;-85
2023/05/23 12:59:46;;;;;;;17.50;4.50;;;;;;;23.01;36.86;100489.48;105604;1286;74858;-85
2023/05/23 13:02:32;;;;;;;6.20;4.30;;;;;;;22.95;36.94;100495.20;105451;1287;59206;-85
2023/05/23 13:05:18;;;;;;;5.80;4.20;;;;;;;22.84;37.11;100497.42;105433;1286;60461;-85
2023/05/23 13:08:05;;;;;;;10.30;5.10;;;;;;;22.65;37.49;100495.86;105546;1288;74108;-85
2023/05/23 13:10:55;;;;;;;29.90;6.20;;;;;;;22.48;37.61;100492.11;105497;1286;67060;-85
2023/05/23 13:13:41;;;;;;;7.40;5.20;;;;;;;22.33;38.08;100497.02;105378;1290;71492;-85
2023/05/23 13:16:27;;;;;;;7.10;4.70;;;;;;;22.17;38.39;100497.21;105688;1288;60578;-85
2023/05/23 13:19:13;;;;;;;4.80;4.40;;;;;;;22.04;38.64;100503.29;105348;1286;59458;-85
2023/05/23 13:22:00;;;;;;;11.30;4.70;;;;;;;21.92;38.82;100508.66;105536;1286;72845;-85
2023/05/23 13:24:46;;;;;;;9.50;4.80;;;;;;;21.77;39.24;100503.69;105435;1285;69190;-85
2023/05/23 13:27:33;;;;;;;10.30;4.30;;;;;;;21.64;39.66;100501.50;105276;1286;72877;-85
2023/05/23 13:30:19;;;;;;;6.50;4.50;;;;;;;21.58;39.90;100502.25;105514;1285;60597;-85